createdAt,value
2019-06-26T00:00:14.515Z,68.00
2019-06-26T00:02:44.670Z,67.80
2019-06-26T00:05:14.224Z,67.10
2019-06-26T00:07:43.785Z,67.00
2019-06-26T00:10:13.763Z,67.60
2019-06-26T00:12:43.873Z,68.10
2019-06-26T00:15:13.491Z,68.00
2019-06-26T00:17:43.031Z,67.60
2019-06-26T00:20:12.917Z,68.00
2019-06-26T00:22:42.331Z,68.30
2019-06-26T00:25:12.915Z,67.90
2019-06-26T00:27:42.332Z,68.30
2019-06-26T00:30:12.298Z,68.40
2019-06-26T00:32:42.102Z,68.30
2019-06-26T00:35:11.682Z,68.70
2019-06-26T00:37:41.260Z,69.10
2019-06-26T00:40:11.243Z,68.90
2019-06-26T00:42:41.186Z,69.00
2019-06-26T00:45:10.705Z,69.30
2019-06-26T00:47:40.185Z,69.10
2019-06-26T00:50:10.664Z,68.90
2019-06-26T00:52:40.288Z,68.90
2019-06-26T00:55:09.913Z,69.10
2019-06-26T00:57:39.392Z,68.90
2019-06-26T01:00:09.549Z,68.80
2019-06-26T01:02:40.419Z,68.10
2019-06-26T01:05:10.285Z,67.80
2019-06-26T01:07:39.798Z,67.80
2019-06-26T01:10:11.344Z,67.70
2019-06-26T01:12:40.754Z,68.20
2019-06-26T01:15:10.653Z,68.70
2019-06-26T01:17:40.285Z,68.70
2019-06-26T01:20:10.285Z,68.90
2019-06-26T01:22:39.560Z,69.40
2019-06-26T01:25:09.193Z,68.90
2019-06-26T01:27:38.709Z,69.10
2019-06-26T01:30:09.465Z,68.80
2019-06-26T01:32:38.973Z,68.70
2019-06-26T01:35:09.466Z,68.70
2019-06-26T01:37:38.966Z,69.20
2019-06-26T01:40:09.243Z,69.40
2019-06-26T01:42:38.803Z,69.40
2019-06-26T01:45:09.176Z,69.70
2019-06-26T01:47:57.988Z,69.80
2019-06-26T01:50:27.418Z,69.60
2019-06-26T01:52:56.956Z,69.60
2019-06-26T01:55:26.365Z,69.70
2019-06-26T01:57:55.845Z,70.00
2019-06-26T02:00:25.977Z,70.30
2019-06-26T02:02:55.191Z,70.50
2019-06-26T02:05:24.690Z,70.10
2019-06-26T02:07:54.167Z,70.70
2019-06-26T02:10:23.799Z,70.80
2019-06-26T02:12:53.562Z,70.50
2019-06-26T02:15:23.107Z,70.10
2019-06-26T02:17:52.526Z,69.80
2019-06-26T02:20:22.034Z,69.70
2019-06-26T02:22:51.465Z,70.10
2019-06-26T02:25:20.874Z,70.30
2019-06-26T02:27:50.316Z,70.50
2019-06-26T02:30:19.811Z,70.50
2019-06-26T02:32:49.291Z,70.50
2019-06-26T02:35:19.690Z,70.80
2019-06-26T02:37:49.092Z,69.70
2019-06-26T02:40:18.756Z,70.10
2019-06-26T02:42:48.312Z,69.80
2019-06-26T02:45:17.849Z,70.10
2019-06-26T02:47:47.365Z,70.20
2019-06-26T02:50:16.847Z,70.10
2019-06-26T02:52:46.414Z,69.80
2019-06-26T02:55:16.052Z,69.90
2019-06-26T02:57:45.449Z,70.00
2019-06-26T03:00:15.325Z,69.90
2019-06-26T03:02:44.726Z,70.10
2019-06-26T03:05:14.338Z,70.10
2019-06-26T03:07:43.826Z,70.60
2019-06-26T03:10:13.492Z,70.70
2019-06-26T03:12:43.004Z,70.50
2019-06-26T03:15:12.852Z,70.80
2019-06-26T03:17:54.686Z,70.70
2019-06-26T03:20:14.005Z,70.80
2019-06-26T03:22:43.515Z,70.90
2019-06-26T03:25:13.167Z,71.30
2019-06-26T03:27:42.576Z,71.40
2019-06-26T03:30:12.451Z,71.20
2019-06-26T03:32:41.935Z,71.60
2019-06-26T03:35:11.693Z,71.90
2019-06-26T03:37:41.735Z,72.40
2019-06-26T03:40:11.428Z,71.40
2019-06-26T03:42:40.932Z,71.40
2019-06-26T03:45:24.547Z,71.10
2019-06-26T03:47:42.034Z,70.70
2019-06-26T03:50:12.283Z,70.50
2019-06-26T03:52:41.808Z,70.50
2019-06-26T03:55:11.927Z,70.30
2019-06-26T03:57:41.123Z,70.70
2019-06-26T04:00:10.888Z,71.20
2019-06-26T04:02:40.351Z,70.90
2019-06-26T04:05:10.016Z,70.90
2019-06-26T04:07:39.439Z,70.40
2019-06-26T04:10:09.495Z,70.60
2019-06-26T04:12:38.980Z,70.80
2019-06-26T04:15:08.525Z,70.80
2019-06-26T04:17:37.936Z,71.00
2019-06-26T04:20:08.084Z,71.10
2019-06-26T04:22:37.334Z,71.40
2019-06-26T04:25:06.845Z,71.80
2019-06-26T04:27:36.252Z,72.00
2019-06-26T04:30:08.384Z,72.10
2019-06-26T04:32:37.807Z,72.00
2019-06-26T04:35:07.269Z,72.10
2019-06-26T04:37:36.691Z,72.00
2019-06-26T04:40:07.539Z,72.50
2019-06-26T04:42:37.031Z,72.40
2019-06-26T04:45:07.098Z,72.50
2019-06-26T04:47:36.495Z,72.40
2019-06-26T04:50:08.447Z,72.10
2019-06-26T04:52:38.062Z,72.10
2019-06-26T04:55:08.454Z,72.00
2019-06-26T04:57:38.931Z,71.80
2019-06-26T05:00:09.160Z,72.10
2019-06-26T05:02:38.611Z,72.10
2019-06-26T05:05:08.727Z,72.00
2019-06-26T05:07:38.200Z,71.70
2019-06-26T05:10:10.530Z,72.20
2019-06-26T05:12:40.019Z,72.10
2019-06-26T05:15:10.140Z,72.10
2019-06-26T05:17:40.764Z,72.20
2019-06-26T05:20:12.273Z,72.50
2019-06-26T05:22:41.671Z,72.70
2019-06-26T05:25:12.484Z,72.40
2019-06-26T05:27:41.918Z,72.50
2019-06-26T05:30:13.206Z,72.60
2019-06-26T05:32:42.614Z,71.90
2019-06-26T05:35:12.656Z,72.20
2019-06-26T05:37:42.075Z,71.60
2019-06-26T05:40:13.827Z,71.50
2019-06-26T05:42:43.340Z,71.90
2019-06-26T05:45:13.280Z,71.50
2019-06-26T05:47:42.678Z,71.60
2019-06-26T05:50:12.833Z,71.70
2019-06-26T05:52:43.066Z,71.60
2019-06-26T05:55:14.281Z,71.50
2019-06-26T05:57:43.387Z,71.80
2019-06-26T06:00:14.723Z,71.70
2019-06-26T06:02:44.218Z,71.60
2019-06-26T06:05:13.797Z,71.50
2019-06-26T06:07:43.258Z,71.00
2019-06-26T06:10:13.999Z,70.40
2019-06-26T06:12:43.392Z,69.90
2019-06-26T06:15:14.261Z,70.10
2019-06-26T06:17:43.739Z,70.20
2019-06-26T06:20:13.914Z,70.10
2019-06-26T06:22:43.120Z,70.10
2019-06-26T06:25:12.706Z,69.90
2019-06-26T06:27:42.119Z,70.00
2019-06-26T06:30:12.066Z,70.20
2019-06-26T06:32:41.474Z,70.70
2019-06-26T06:35:11.021Z,70.40
2019-06-26T06:37:40.459Z,70.50
2019-06-26T06:40:10.195Z,70.50
2019-06-26T06:42:39.633Z,70.70
2019-06-26T06:45:09.430Z,70.10
2019-06-26T06:47:38.820Z,70.20
2019-06-26T06:50:08.603Z,70.70
2019-06-26T06:52:38.007Z,70.30
2019-06-26T06:55:07.486Z,69.80
2019-06-26T06:57:36.909Z,69.60
2019-06-26T07:00:07.056Z,70.10
2019-06-26T07:02:36.341Z,70.50
2019-06-26T07:05:07.710Z,70.80
2019-06-26T07:07:37.141Z,70.90
2019-06-26T07:10:07.310Z,70.90
2019-06-26T07:12:36.661Z,70.50
2019-06-26T07:15:06.934Z,70.50
2019-06-26T07:17:36.640Z,70.70
2019-06-26T07:20:07.514Z,70.40
2019-06-26T07:22:36.916Z,70.30
2019-06-26T07:25:08.966Z,69.80
2019-06-26T07:27:38.376Z,70.00
2019-06-26T07:30:08.538Z,69.80
2019-06-26T07:32:37.673Z,69.40
2019-06-26T07:35:08.474Z,69.60
2019-06-26T07:37:37.924Z,69.20
2019-06-26T07:40:07.661Z,69.30
2019-06-26T07:42:37.105Z,69.60
2019-06-26T07:45:07.477Z,69.00
2019-06-26T07:47:43.111Z,69.00
2019-06-26T07:50:08.590Z,68.60
2019-06-26T07:52:38.006Z,68.60
2019-06-26T07:55:11.641Z,68.40
2019-06-26T07:57:39.406Z,68.00
2019-06-26T08:00:11.109Z,68.40
2019-06-26T08:02:42.197Z,69.00
2019-06-26T08:05:12.059Z,69.10
2019-06-26T08:07:41.548Z,68.80
2019-06-26T08:10:12.105Z,69.10
2019-06-26T08:12:41.599Z,68.30
2019-06-26T08:15:12.753Z,67.20
2019-06-26T08:17:59.391Z,67.50
2019-06-26T08:20:16.452Z,67.30
2019-06-26T08:22:46.012Z,67.30
2019-06-26T08:25:15.574Z,67.30
2019-06-26T08:27:51.179Z,67.30
2019-06-26T08:30:27.435Z,67.10
2019-06-26T08:32:56.891Z,66.70
2019-06-26T08:35:26.292Z,66.60
2019-06-26T08:38:09.875Z,66.20
2019-06-26T08:40:26.816Z,65.70
2019-06-26T08:42:56.218Z,65.30
2019-06-26T08:45:25.735Z,65.30
2019-06-26T08:47:55.277Z,65.90
2019-06-26T08:50:24.826Z,65.60
2019-06-26T08:52:54.208Z,65.90
2019-06-26T08:55:23.766Z,65.70
2019-06-26T08:57:53.161Z,65.20
2019-06-26T09:00:22.860Z,66.30
2019-06-26T09:02:52.282Z,67.80
2019-06-26T09:05:21.827Z,66.80
2019-06-26T09:07:51.303Z,66.60
2019-06-26T09:10:22.524Z,66.30
2019-06-26T09:12:52.025Z,65.60
2019-06-26T09:15:21.427Z,65.60
2019-06-26T09:17:50.848Z,65.60
2019-06-26T09:20:25.988Z,64.70
2019-06-26T09:22:55.448Z,65.10
2019-06-26T09:25:24.865Z,64.90
2019-06-26T09:27:54.344Z,64.30
2019-06-26T09:30:23.986Z,64.40
2019-06-26T09:32:53.392Z,63.80
2019-06-26T09:35:22.944Z,63.10
2019-06-26T09:37:52.434Z,62.70
2019-06-26T09:40:21.960Z,63.20
2019-06-26T09:42:51.365Z,63.20
2019-06-26T09:45:20.880Z,63.60
2019-06-26T09:47:50.336Z,63.30
2019-06-26T09:50:20.262Z,62.60
2019-06-26T09:52:49.652Z,61.80
2019-06-26T09:55:19.419Z,61.30
2019-06-26T09:57:48.803Z,60.50
2019-06-26T10:00:21.073Z,60.20
2019-06-26T10:02:50.552Z,61.00
2019-06-26T10:05:21.889Z,60.70
2019-06-26T10:07:51.294Z,59.80
2019-06-26T10:10:20.695Z,59.80
2019-06-26T10:12:50.094Z,59.80
2019-06-26T10:15:19.635Z,59.70
2019-06-26T10:17:49.098Z,59.10
2019-06-26T10:20:18.652Z,58.90
2019-06-26T10:22:48.062Z,58.80
2019-06-26T10:25:17.816Z,58.80
2019-06-26T10:27:47.330Z,58.90
2019-06-26T10:30:17.193Z,58.50
2019-06-26T10:32:46.300Z,57.60
2019-06-26T10:35:16.886Z,56.90
2019-06-26T10:37:46.341Z,57.00
2019-06-26T10:40:16.920Z,56.90
2019-06-26T10:42:46.623Z,56.40
2019-06-26T10:45:16.206Z,56.70
2019-06-26T10:47:45.694Z,56.60
2019-06-26T10:50:16.705Z,56.20
2019-06-26T10:52:46.200Z,55.50
2019-06-26T10:55:16.839Z,56.30
2019-06-26T10:57:46.247Z,55.60
2019-06-26T11:00:17.482Z,55.10
2019-06-26T11:02:46.952Z,54.70
2019-06-26T11:05:17.102Z,55.50
2019-06-26T11:07:46.518Z,55.10
2019-06-26T11:10:16.548Z,55.60
2019-06-26T11:12:48.951Z,55.60
2019-06-26T11:15:17.246Z,55.40
2019-06-26T11:17:46.349Z,54.70
2019-06-26T11:20:16.379Z,54.60
2019-06-26T11:22:45.484Z,54.30
2019-06-26T11:25:17.988Z,54.40
2019-06-26T11:27:47.626Z,53.60
2019-06-26T11:30:18.409Z,53.00
2019-06-26T11:32:47.892Z,52.70
2019-06-26T11:35:17.551Z,53.10
2019-06-26T11:37:48.997Z,52.40
2019-06-26T11:40:18.474Z,52.50
2019-06-26T11:42:47.900Z,52.10
2019-06-26T11:45:17.741Z,52.60
2019-06-26T11:47:49.350Z,51.40
2019-06-26T11:50:19.200Z,51.90
2019-06-26T11:52:48.376Z,51.40
2019-06-26T11:55:18.161Z,50.90
2019-06-26T11:57:47.379Z,51.70
2019-06-26T12:00:20.355Z,51.90
2019-06-26T12:02:51.889Z,51.20
2019-06-26T12:05:21.575Z,50.10
2019-06-26T12:07:51.005Z,50.00
2019-06-26T12:10:20.642Z,50.60
2019-06-26T12:12:50.140Z,50.80
2019-06-26T12:15:21.087Z,48.60
2019-06-26T12:17:50.561Z,48.70
2019-06-26T12:20:20.445Z,48.20
2019-06-26T12:22:49.557Z,48.50
2019-06-26T12:25:19.033Z,48.30
2019-06-26T12:27:48.435Z,48.00
2019-06-26T12:30:18.502Z,49.50
2019-06-26T12:33:02.267Z,49.60
2019-06-26T12:35:19.149Z,47.60
2019-06-26T12:37:48.564Z,47.00
2019-06-26T12:40:18.317Z,46.40
2019-06-26T12:42:47.800Z,47.20
2019-06-26T12:45:17.542Z,48.20
2019-06-26T12:47:46.756Z,47.50
2019-06-26T12:50:34.124Z,47.20
2019-06-26T12:52:50.392Z,47.00
2019-06-26T12:55:19.819Z,47.20
2019-06-26T12:57:49.226Z,47.00
2019-06-26T13:00:18.887Z,46.40
2019-06-26T13:02:48.073Z,47.80
2019-06-26T13:05:18.488Z,48.00
2019-06-26T13:07:47.999Z,47.80
2019-06-26T13:10:17.576Z,46.80
2019-06-26T13:12:46.987Z,46.20
2019-06-26T13:15:16.824Z,46.40
2019-06-26T13:17:46.303Z,46.00
2019-06-26T13:20:15.843Z,44.50
2019-06-26T13:22:45.392Z,44.20
2019-06-26T13:25:16.017Z,44.90
2019-06-26T13:27:45.742Z,44.60
2019-06-26T13:30:25.006Z,44.30
2019-06-26T13:32:54.386Z,44.60
2019-06-26T13:35:24.405Z,44.40
2019-06-26T13:37:54.016Z,43.50
2019-06-26T13:40:23.443Z,44.20
2019-06-26T13:42:52.941Z,44.00
2019-06-26T13:45:21.893Z,44.30
2019-06-26T13:47:51.340Z,43.70
2019-06-26T13:50:21.053Z,44.20
2019-06-26T13:52:50.201Z,43.50
2019-06-26T13:55:19.687Z,43.20
2019-06-26T13:57:49.308Z,42.60
2019-06-26T14:00:19.247Z,43.20
2019-06-26T14:02:48.885Z,43.50
2019-06-26T14:05:18.536Z,44.10
2019-06-26T14:07:47.643Z,43.90
2019-06-26T14:10:17.328Z,44.00
2019-06-26T14:12:46.438Z,43.70
2019-06-26T14:15:16.557Z,43.10
2019-06-26T14:17:46.235Z,42.80
2019-06-26T14:20:16.578Z,42.70
2019-06-26T14:22:46.015Z,42.40
2019-06-26T14:25:15.817Z,42.60
2019-06-26T14:27:45.369Z,42.70
2019-06-26T14:30:15.105Z,42.80
2019-06-26T14:32:44.253Z,43.10
2019-06-26T14:35:13.783Z,43.20
2019-06-26T14:37:43.559Z,42.40
2019-06-26T14:40:13.928Z,42.60
2019-06-26T14:42:42.421Z,42.40
2019-06-26T14:45:11.604Z,41.90
2019-06-26T14:47:40.904Z,41.40
2019-06-26T14:50:10.664Z,41.50
2019-06-26T14:52:39.807Z,41.30
2019-06-26T14:55:09.542Z,41.30
2019-06-26T14:57:38.955Z,40.70
2019-06-26T15:00:09.314Z,40.00
2019-06-26T15:02:37.891Z,40.30
2019-06-26T15:05:07.581Z,39.90
2019-06-26T15:07:37.067Z,40.20
2019-06-26T15:10:07.732Z,40.00
2019-06-26T15:12:37.212Z,40.70
2019-06-26T15:15:06.984Z,40.40
2019-06-26T15:17:36.466Z,40.70
2019-06-26T15:20:08.611Z,40.40
2019-06-26T15:22:38.020Z,40.50
2019-06-26T15:25:08.094Z,39.60
2019-06-26T15:27:37.508Z,39.20
2019-06-26T15:30:07.958Z,39.30
2019-06-26T15:32:38.017Z,39.20
2019-06-26T15:35:07.780Z,38.90
2019-06-26T15:37:37.186Z,39.40
2019-06-26T15:40:07.246Z,38.90
2019-06-26T15:42:36.657Z,39.10
2019-06-26T15:45:07.157Z,39.10
2019-06-26T15:47:36.574Z,39.50
2019-06-26T15:50:10.507Z,39.90
2019-06-26T15:52:38.559Z,39.80
2019-06-26T15:55:08.622Z,40.40
2019-06-26T15:57:38.998Z,40.30
2019-06-26T16:00:07.962Z,40.50
2019-06-26T16:02:38.592Z,41.00
2019-06-26T16:05:08.243Z,41.90
2019-06-26T16:07:37.433Z,41.70
2019-06-26T16:10:07.288Z,42.60
2019-06-26T16:12:36.771Z,42.60
2019-06-26T16:15:06.669Z,42.50
2019-06-26T16:17:36.160Z,42.60
2019-06-26T16:20:06.640Z,42.30
2019-06-26T16:22:35.065Z,42.70
2019-06-26T16:25:05.054Z,42.50
2019-06-26T16:27:34.493Z,43.40
2019-06-26T16:30:06.973Z,43.50
2019-06-26T16:32:36.448Z,43.40
2019-06-26T16:35:07.794Z,44.00
2019-06-26T16:37:37.246Z,44.40
2019-06-26T16:40:07.402Z,44.30
2019-06-26T16:42:38.045Z,45.20
2019-06-26T16:45:08.235Z,45.40
2019-06-26T16:47:37.635Z,45.50
2019-06-26T16:50:08.633Z,46.40
2019-06-26T16:52:48.768Z,46.80
2019-06-26T16:55:09.380Z,46.80
2019-06-26T16:57:38.781Z,46.90
2019-06-26T17:00:10.238Z,47.40
2019-06-26T17:02:39.976Z,47.80
2019-06-26T17:05:09.725Z,47.30
2019-06-26T17:07:38.853Z,47.90
2019-06-26T17:10:10.133Z,47.90
2019-06-26T17:12:39.548Z,47.90
2019-06-26T17:15:09.773Z,48.30
2019-06-26T17:17:39.350Z,49.20
2019-06-26T17:20:09.286Z,49.10
2019-06-26T17:22:38.667Z,48.50
2019-06-26T17:25:08.431Z,49.20
2019-06-26T17:27:37.694Z,48.80
2019-06-26T17:30:07.664Z,48.80
2019-06-26T17:32:37.133Z,48.90
2019-06-26T17:35:06.923Z,49.20
2019-06-26T17:37:36.230Z,49.00
2019-06-26T17:40:07.252Z,48.60
2019-06-26T17:42:36.671Z,49.00
2019-06-26T17:45:06.809Z,49.10
2019-06-26T17:47:36.261Z,49.20
2019-06-26T17:50:06.291Z,49.20
2019-06-26T17:52:38.407Z,49.50
2019-06-26T17:55:26.144Z,49.50
2019-06-26T17:57:55.535Z,49.90
2019-06-26T18:00:28.040Z,49.80
2019-06-26T18:02:57.507Z,49.80
2019-06-26T18:05:26.953Z,50.50
2019-06-26T18:07:56.454Z,50.80
2019-06-26T18:10:25.885Z,51.40
2019-06-26T18:12:55.390Z,51.60
2019-06-26T18:15:24.859Z,51.80
2019-06-26T18:17:54.313Z,52.10
2019-06-26T18:20:23.764Z,52.30
2019-06-26T18:23:06.694Z,52.40
2019-06-26T18:25:24.292Z,52.20
2019-06-26T18:27:53.974Z,52.80
2019-06-26T18:30:23.578Z,53.20
2019-06-26T18:32:52.954Z,53.60
2019-06-26T18:35:22.408Z,53.90
2019-06-26T18:37:52.487Z,53.20
2019-06-26T18:40:22.030Z,53.20
2019-06-26T18:42:51.429Z,53.60
2019-06-26T18:45:21.204Z,53.60
2019-06-26T18:47:50.602Z,53.60
2019-06-26T18:50:20.058Z,53.50
2019-06-26T18:52:49.513Z,53.90
2019-06-26T18:55:19.038Z,53.90
2019-06-26T18:57:48.460Z,53.70
2019-06-26T19:00:18.268Z,52.00
2019-06-26T19:02:47.447Z,49.00
2019-06-26T19:05:16.937Z,48.00
2019-06-26T19:07:46.391Z,48.20
2019-06-26T19:10:16.046Z,47.80
2019-06-26T19:12:45.588Z,47.70
2019-06-26T19:15:15.271Z,47.80
2019-06-26T19:17:44.731Z,48.60
2019-06-26T19:20:14.419Z,49.00
2019-06-26T19:22:47.254Z,50.80
2019-06-26T19:25:15.001Z,51.60
2019-06-26T19:27:44.410Z,51.80
2019-06-26T19:30:14.131Z,52.60
2019-06-26T19:32:43.621Z,53.50
2019-06-26T19:35:20.521Z,54.50
2019-06-26T19:37:44.270Z,55.10
2019-06-26T19:40:14.701Z,55.40
2019-06-26T19:42:44.093Z,55.70
2019-06-26T19:45:14.249Z,55.90
2019-06-26T19:47:43.653Z,55.90
2019-06-26T19:50:13.611Z,56.90
2019-06-26T19:52:42.835Z,56.20
2019-06-26T19:55:12.956Z,56.70
2019-06-26T19:57:42.529Z,57.10
2019-06-26T20:00:12.374Z,56.90
2019-06-26T20:02:41.979Z,57.00
2019-06-26T20:05:11.729Z,57.40
2019-06-26T20:07:41.237Z,57.30
2019-06-26T20:10:12.633Z,57.20
2019-06-26T20:12:42.117Z,55.40
2019-06-26T20:15:11.777Z,54.00
2019-06-26T20:17:41.153Z,53.30
2019-06-26T20:20:10.791Z,53.20
2019-06-26T20:22:40.260Z,53.20
2019-06-26T20:25:10.291Z,53.40
2019-06-26T20:27:39.438Z,53.10
2019-06-26T20:30:10.098Z,53.30
2019-06-26T20:32:39.783Z,53.20
2019-06-26T20:35:09.333Z,53.10
2019-06-26T20:37:38.714Z,52.90
2019-06-26T20:40:09.935Z,52.90
2019-06-26T20:42:39.434Z,53.10
2019-06-26T20:45:09.076Z,53.50
2019-06-26T20:47:38.526Z,54.30
2019-06-26T20:50:08.189Z,54.60
2019-06-26T20:52:37.735Z,55.30
2019-06-26T20:55:08.372Z,55.10
2019-06-26T20:57:37.823Z,55.10
2019-06-26T21:00:07.896Z,54.40
2019-06-26T21:02:37.941Z,53.90
2019-06-26T21:05:08.453Z,52.80
2019-06-26T21:07:37.932Z,52.80
2019-06-26T21:10:07.580Z,52.00
2019-06-26T21:12:37.187Z,51.70
2019-06-26T21:15:07.451Z,51.50
2019-06-26T21:17:36.848Z,51.60
2019-06-26T21:20:07.076Z,51.60
2019-06-26T21:22:36.473Z,51.40
2019-06-26T21:25:17.615Z,51.80
2019-06-26T21:27:37.722Z,51.70
2019-06-26T21:30:07.677Z,52.00
2019-06-26T21:32:36.781Z,52.40
2019-06-26T21:35:06.531Z,52.50
2019-06-26T21:37:35.998Z,52.40
2019-06-26T21:40:05.818Z,52.50
2019-06-26T21:42:35.409Z,53.10
2019-06-26T21:45:05.596Z,53.40
2019-06-26T21:47:35.004Z,53.70
2019-06-26T21:50:05.796Z,53.70
2019-06-26T21:52:35.362Z,53.90
2019-06-26T21:55:05.702Z,53.80
2019-06-26T21:57:53.031Z,53.70
2019-06-26T22:00:40.511Z,53.80
2019-06-26T22:03:28.491Z,54.20
2019-06-26T22:06:16.439Z,54.80
2019-06-26T22:08:47.462Z,55.30
2019-06-26T22:11:18.578Z,55.50
2019-06-26T22:13:48.394Z,55.80
2019-06-26T22:16:17.722Z,55.50
2019-06-26T22:18:47.290Z,55.40
2019-06-26T22:21:16.737Z,55.70
2019-06-26T22:23:46.182Z,55.70
2019-06-26T22:26:15.658Z,56.10
2019-06-26T22:28:45.114Z,56.20
2019-06-26T22:31:14.582Z,56.40
2019-06-26T22:33:43.999Z,56.70
2019-06-26T22:36:13.412Z,57.00
2019-06-26T22:38:42.821Z,57.00
2019-06-26T22:41:12.229Z,56.90
2019-06-26T22:43:41.643Z,56.90
2019-06-26T22:46:11.032Z,57.40
2019-06-26T22:48:40.458Z,57.00
2019-06-26T22:51:09.899Z,56.90
2019-06-26T22:53:39.301Z,56.80
2019-06-26T22:56:08.769Z,57.10
2019-06-26T22:58:38.173Z,57.30
2019-06-26T23:01:07.636Z,57.50
2019-06-26T23:03:37.027Z,58.10
2019-06-26T23:06:06.537Z,58.20
2019-06-26T23:08:35.998Z,58.00
2019-06-26T23:11:05.461Z,58.40
2019-06-26T23:13:34.887Z,58.80
2019-06-26T23:16:04.354Z,59.00
2019-06-26T23:18:33.849Z,59.10
2019-06-26T23:21:03.219Z,59.40
2019-06-26T23:23:33.635Z,59.10
2019-06-26T23:26:03.127Z,58.90
2019-06-26T23:28:32.561Z,59.30
2019-06-26T23:31:01.974Z,59.20
2019-06-26T23:33:31.388Z,59.00
2019-06-26T23:36:00.785Z,59.00
2019-06-26T23:38:30.163Z,58.90
2019-06-26T23:40:59.565Z,59.10
2019-06-26T23:43:28.983Z,59.10
2019-06-26T23:45:58.379Z,59.30
2019-06-26T23:48:27.770Z,59.60
2019-06-26T23:50:57.187Z,60.20
2019-06-26T23:53:26.599Z,59.50
2019-06-26T23:55:55.983Z,59.20
2019-06-26T23:58:25.393Z,59.50
